Weather at Valesdir Airport

Public forecast

Using degrees Celsius for public forecast. Weather courtesy of forecast.io.

Closest aviation weather report (METAR) to Valesdir Airport

Closest report is Bauerfield International Airport, 54.8 nm (101.6 km) S.

2024/06/18 04:00 (retrieved 48 minutes ago)

NVVV 180400Z 17004KT 9999 BKN020 OVC040 26/22 Q1011

Closest aviation forecast (TAF) to Valesdir Airport

Forecast is more than 6 hours old.

Closest forecast is Lifou Airport, 244.7 nm (453.3 km) SSW.

2024/06/17 18:00 Ammendment (retrieved 11 hours ago)

TAF AMD NWWL 171700Z 1718/1818 VRB02KT 9999 FEW030 BECMG 1723/1801 27010KT BECMG 1806/1808 VRB02KT